ヨハネスブルグ の空港の天気 - METARとTAF

ヨハネスブルグ/O.R.タンボ国際空港 ( FAOR / JNB ) - 南アフリカ ヨハネスブルグ
飛行場実況気象(Metar)
観測時間09/20 23:00 SAST (09/20 21:00 UTC)
風向・風速北 8m/s
視程10km以上
天気現象
なし
気温13℃
湿度77%
気圧1026hPa
METARFAOR 202100Z 01016KT CAVOK 13/09 Q1026 NOSIG
過去の天気等 Google飛行場航空写真 Wunderground天気予報

過去48時間のMETAR

飛行場予報(TAF)
発表時間: 9/20 18:00 SAST (9/20 16:00 UTC)
予報対象時間: 20日20時 SAST ~ 22日2時 SAST
風向・風速北 8m/s
視程10km以上
なし
21日7時 SAST ~ 21日11時 SAST に 確率 30% で一時的に
全天の8割程度の雲 雲底高度 300m
21日15時 SAST ~ 21日17時 SAST に徐々に
風向・風速西北西 3m/s
21日22時 SAST ~ 21日24時 SAST に徐々に
風向・風速東南東 5m/s
TAF FAOR 201600Z 2018/2124 01015KT CAVOK
PROB30 TEMPO 2105/2109 BKN010
BECMG 2113/2115 30006KT
BECMG 2120/2122 12010KT TX24/2113Z TN10/2104Z